Batesville, Arkansas
Current Conditions -  °F | °C
As of 2:55 AM on Saturday 22 Nov 2014 (Local Time) from KBVX Reporting Station
Few Clouds Few Clouds  
Wind Chill: 40°   Ceiling: Unl
Heat Index: 43°   Visibility: 7mi
Dew Point: 41°   Wind: 5mph
Humidity: 93%   Direction: 150°SSE
Pressure: 30.22"   Gusts: NA
Location:  35.77°N, 91.65°W
Report Text: KBVX 220855Z AUTO 15004KT 7SM FEW060 06/05 A3022 RMK AO1 57014
Loading
Personal Weather Stations






























Interactive Weather Map New forecast layout! Learn more

10-Day Weather Forecast

Advertisements
Track Severe Weather on mobile